Time;durP1;ratioP1;P1;durP2;ratioP2;P2;SDS_P1;SDS_P2;PMS_P1;PMS_P2;Temp;Humidity;BMP_temperature;BMP_pressure;BME280_temperature;BME280_humidity;BME280_pressure;Samples;Min_cycle;Max_cycle;Signal;HPM_P1;HPM_P2
2022/07/20 00:01:49;;;;;;;8.88;8.07;;;;;;;28.21;49.16;96261.69;5047731;28;20210;-84
2022/07/20 00:04:17;;;;;;;8.27;7.45;;;;;;;28.18;49.39;96259.59;5045139;28;20218;-84
2022/07/20 00:06:44;;;;;;;9.45;8.13;;;;;;;28.21;49.89;96250.59;5047413;28;20214;-84
2022/07/20 00:11:57;;;;;;;9.27;8.38;;;;;;;28.72;48.58;96244.69;5060593;28;20221;-83
2022/07/20 00:14:25;;;;;;;9.25;7.78;;;;;;;28.73;47.36;96262.97;5038626;28;20229;-85
2022/07/20 00:16:52;;;;;;;9.93;7.10;;;;;;;28.50;48.08;96254.28;5042182;28;20203;-84
2022/07/20 00:19:19;;;;;;;7.93;7.13;;;;;;;28.35;48.01;96255.81;5044723;28;20285;-84
2022/07/20 00:21:47;;;;;;;8.77;7.93;;;;;;;28.43;49.05;96257.66;5061541;28;20210;-84
2022/07/20 00:24:14;;;;;;;9.60;8.68;;;;;;;28.66;48.22;96248.88;5047155;28;20206;-84
2022/07/20 00:26:41;;;;;;;8.98;8.10;;;;;;;28.76;48.16;96253.91;5046530;28;20226;-85
2022/07/20 00:29:09;;;;;;;9.35;8.45;;;;;;;28.80;48.23;96249.34;5046179;28;20257;-85
2022/07/20 00:31:37;;;;;;;8.70;7.90;;;;;;;28.78;47.33;96246.09;5050292;28;20214;-85
2022/07/20 00:34:04;;;;;;;9.00;8.10;;;;;;;28.64;47.75;96257.53;5044234;28;20207;-84
2022/07/20 00:36:32;;;;;;;10.07;8.93;;;;;;;28.82;47.57;96241.47;5047287;28;20205;-84
2022/07/20 00:39:00;;;;;;;10.93;8.45;;;;;;;28.97;47.00;96249.88;5044832;28;20301;-84
2022/07/20 00:41:27;;;;;;;11.60;8.15;;;;;;;28.71;47.61;96241.09;5045750;28;20198;-85
2022/07/20 00:44:00;;;;;;;9.30;8.27;;;;;;;28.74;47.47;96240.41;5037771;28;20284;-84
2022/07/20 00:46:31;;;;;;;10.27;8.80;;;;;;;28.97;47.22;96244.31;5069006;28;20249;-84
2022/07/20 00:48:58;;;;;;;8.93;7.88;;;;;;;29.21;46.39;96249.00;5078276;28;20210;-84
2022/07/20 00:51:26;;;;;;;8.18;7.28;;;;;;;29.00;46.62;96242.81;5042179;28;20281;-85
2022/07/20 00:53:53;;;;;;;8.25;7.55;;;;;;;28.77;47.41;96245.28;5046162;28;20210;-84
2022/07/20 00:56:22;;;;;;;8.35;7.55;;;;;;;28.58;48.20;96245.84;5046021;28;20272;-84
2022/07/20 00:58:49;;;;;;;9.55;7.63;;;;;;;28.49;47.84;96255.47;5044228;28;20278;-84
2022/07/20 01:01:17;;;;;;;7.97;7.18;;;;;;;28.34;47.69;96254.19;5078793;28;20218;-84
2022/07/20 01:03:46;;;;;;;8.73;7.82;;;;;;;28.31;48.52;96252.13;5045850;28;20206;-84
2022/07/20 01:06:14;;;;;;;8.40;7.55;;;;;;;28.29;48.15;96251.63;5041602;28;20206;-85
2022/07/20 01:08:41;;;;;;;8.27;7.47;;;;;;;28.23;48.89;96241.94;5040986;28;20248;-84
2022/07/20 01:11:09;;;;;;;8.98;8.07;;;;;;;28.32;48.47;96250.97;5045647;28;20294;-84
2022/07/20 01:13:36;;;;;;;11.02;7.45;;;;;;;28.44;48.11;96258.47;5046703;28;20259;-84
2022/07/20 01:16:04;;;;;;;8.80;8.00;;;;;;;28.36;49.16;96257.44;5043326;28;20207;-84
2022/07/20 01:18:31;;;;;;;10.30;8.15;;;;;;;28.34;49.40;96270.84;5045064;28;20301;-84
2022/07/20 01:21:02;;;;;;;8.65;7.72;;;;;;;28.31;49.31;96263.22;5044874;28;20214;-85
2022/07/20 01:23:30;;;;;;;9.10;8.02;;;;;;;28.29;49.42;96273.84;5042495;28;20194;-84
2022/07/20 01:25:58;;;;;;;8.93;8.13;;;;;;;28.19;49.24;96264.00;5054268;28;20203;-84
2022/07/20 01:28:26;;;;;;;8.25;7.30;;;;;;;28.07;49.12;96271.50;5046960;28;20273;-85
2022/07/20 01:30:53;;;;;;;8.85;7.35;;;;;;;28.02;49.03;96266.97;5044845;28;20305;-84
2022/07/20 01:33:20;;;;;;;9.57;7.00;;;;;;;27.95;50.10;96277.00;5048150;28;20202;-84
2022/07/20 01:35:47;;;;;;;8.30;7.53;;;;;;;27.87;50.64;96267.63;5043625;28;20210;-84
2022/07/20 01:38:16;;;;;;;9.80;8.80;;;;;;;27.84;50.68;96268.31;5039895;28;20263;-83
2022/07/20 01:40:43;;;;;;;11.43;7.70;;;;;;;27.84;50.45;96268.31;5050406;28;20229;-84
2022/07/20 01:43:10;;;;;;;11.82;8.25;;;;;;;27.69;51.41;96267.00;5049642;28;20206;-84
2022/07/20 01:45:38;;;;;;;9.25;7.95;;;;;;;27.63;51.93;96264.78;5034349;28;20313;-83
2022/07/20 01:48:05;;;;;;;8.20;7.50;;;;;;;27.60;51.73;96277.38;5050621;28;20229;-84
2022/07/20 01:50:32;;;;;;;8.48;7.60;;;;;;;27.48;51.27;96267.00;5049367;28;20301;-84
2022/07/20 01:53:00;;;;;;;8.73;7.72;;;;;;;27.55;51.25;96272.03;5063926;28;20213;-84
2022/07/20 01:55:28;;;;;;;9.57;8.13;;;;;;;27.52;50.94;96266.31;5035735;28;20418;-83
2022/07/20 01:57:56;;;;;;;8.45;7.65;;;;;;;27.62;50.96;96261.19;5046355;28;20284;-84
2022/07/20 02:00:24;;;;;;;9.82;8.15;;;;;;;27.57;51.16;96258.63;5044164;28;20210;-84
2022/07/20 02:02:51;;;;;;;8.77;7.90;;;;;;;27.49;52.46;96267.81;5039844;28;20210;-84
2022/07/20 02:05:20;;;;;;;9.02;7.50;;;;;;;27.40;53.51;96262.34;5045212;28;20217;-84
2022/07/20 02:07:47;;;;;;;9.40;8.40;;;;;;;27.37;53.81;96262.22;5044629;28;20226;-84
2022/07/20 02:10:15;;;;;;;9.13;8.32;;;;;;;27.32;53.41;96262.41;5043991;28;20270;-84
2022/07/20 02:12:44;;;;;;;9.38;8.48;;;;;;;27.35;53.30;96268.09;5040685;28;20206;-84
2022/07/20 02:16:14;;;;;;;9.88;8.25;;;;;;;27.38;52.31;96272.19;5037523;28;20209;-84
2022/07/20 02:18:06;;;;;;;8.52;7.72;;;;;;;27.35;52.61;96264.53;5044913;28;20259;-84
2022/07/20 02:20:33;;;;;;;8.52;7.47;;;;;;;27.37;52.64;96265.81;5049048;28;20205;-84
2022/07/20 02:23:00;;;;;;;10.35;8.00;;;;;;;27.36;53.28;96268.91;5044015;28;20222;-84
2022/07/20 02:25:27;;;;;;;8.68;7.88;;;;;;;27.34;53.92;96260.13;5049475;28;20253;-85
2022/07/20 02:27:56;;;;;;;9.02;8.13;;;;;;;27.25;54.33;96259.38;5050545;28;20214;-84
2022/07/20 02:30:24;;;;;;;8.70;7.80;;;;;;;27.08;54.03;96263.13;5050324;28;20206;-84
2022/07/20 02:32:51;;;;;;;9.90;7.97;;;;;;;27.12;54.12;96264.06;5045572;28;20240;-84
2022/07/20 02:35:18;;;;;;;8.95;8.15;;;;;;;27.19;53.75;96266.28;5079646;28;20206;-84
2022/07/20 02:37:45;;;;;;;8.95;7.97;;;;;;;27.26;53.86;96264.59;5049544;28;20232;-84
2022/07/20 02:40:13;;;;;;;8.90;8.07;;;;;;;27.10;56.65;96267.19;5047794;28;20211;-84
2022/07/20 02:42:40;;;;;;;8.98;8.10;;;;;;;26.96;56.37;96265.84;5044986;28;20198;-84
2022/07/20 02:45:10;;;;;;;9.25;8.05;;;;;;;26.88;56.67;96259.16;5080838;28;20218;-84
2022/07/20 02:47:43;;;;;;;9.15;8.32;;;;;;;26.94;55.31;96262.56;5048004;28;20245;-84
2022/07/20 02:50:12;;;;;;;9.25;8.30;;;;;;;26.95;54.78;96269.75;5047590;28;20220;-84
2022/07/20 02:52:39;;;;;;;9.32;8.20;;;;;;;27.00;54.70;96273.13;5045944;28;20286;-84
2022/07/20 02:55:07;;;;;;;9.45;7.57;;;;;;;27.00;54.56;96270.34;5047823;28;20239;-84
2022/07/20 02:57:35;;;;;;;9.90;8.27;;;;;;;27.01;54.43;96271.97;5046299;28;20300;-84
2022/07/20 03:00:03;;;;;;;9.32;8.32;;;;;;;26.96;55.12;96266.66;5047198;28;20198;-83
2022/07/20 03:02:32;;;;;;;9.05;8.25;;;;;;;26.94;56.23;96277.25;5052600;28;20220;-84
2022/07/20 03:04:59;;;;;;;9.20;8.30;;;;;;;26.85;57.13;96270.91;5047494;28;20217;-84
2022/07/20 03:07:26;;;;;;;9.20;8.30;;;;;;;26.70;57.59;96265.97;5040164;28;20233;-84
2022/07/20 03:09:54;;;;;;;9.63;8.73;;;;;;;26.61;56.97;96270.75;5045044;28;20210;-83
2022/07/20 03:12:21;;;;;;;11.02;8.77;;;;;;;26.56;56.64;96265.41;5063526;28;20298;-84
2022/07/20 03:14:48;;;;;;;9.82;8.30;;;;;;;26.54;56.47;96264.94;5047539;28;20210;-83
2022/07/20 03:17:16;;;;;;;10.43;8.43;;;;;;;26.57;57.27;96272.56;5046948;28;20218;-84
2022/07/20 03:19:44;;;;;;;9.70;8.77;;;;;;;26.65;55.44;96269.72;5048948;28;20201;-84
2022/07/20 03:22:12;;;;;;;9.70;8.75;;;;;;;26.73;55.33;96277.19;5037504;28;20210;-84
2022/07/20 03:24:39;;;;;;;9.68;8.65;;;;;;;26.79;55.42;96275.03;5049803;28;20194;-84
2022/07/20 03:27:06;;;;;;;10.40;8.18;;;;;;;26.81;55.26;96269.97;5047472;28;20225;-84
2022/07/20 03:29:34;;;;;;;9.30;8.40;;;;;;;26.80;54.92;96276.63;5046476;28;20317;-84
2022/07/20 03:32:01;;;;;;;8.95;8.05;;;;;;;26.75;55.41;96276.84;5046306;28;20263;-84
2022/07/20 03:34:28;;;;;;;9.60;8.63;;;;;;;26.84;55.06;96283.16;5037634;28;20201;-84
2022/07/20 03:36:57;;;;;;;9.50;8.60;;;;;;;26.80;55.22;96284.94;5048984;28;20213;-84
2022/07/20 03:39:24;;;;;;;9.18;8.30;;;;;;;26.80;55.50;96282.19;5048254;28;20229;-84
2022/07/20 03:41:52;;;;;;;9.45;8.30;;;;;;;26.79;55.35;96277.00;5047677;28;20260;-84
2022/07/20 03:44:19;;;;;;;8.48;7.68;;;;;;;26.77;55.09;96279.28;5045567;28;20210;-84
2022/07/20 03:46:46;;;;;;;9.57;8.55;;;;;;;26.73;55.79;96281.91;5048186;28;20217;-84
2022/07/20 03:49:13;;;;;;;10.65;8.68;;;;;;;26.66;55.96;96276.09;5047019;28;20258;-84
2022/07/20 03:51:40;;;;;;;10.30;8.88;;;;;;;26.67;56.19;96283.25;5077161;28;20210;-84
2022/07/20 03:54:08;;;;;;;9.60;8.52;;;;;;;26.68;56.63;96288.47;5044572;28;20292;-84
2022/07/20 03:56:39;;;;;;;9.82;8.55;;;;;;;26.61;57.31;96287.38;5078898;28;20226;-84
2022/07/20 03:59:08;;;;;;;8.40;7.60;;;;;;;26.53;57.66;96291.00;5044818;28;20217;-84
2022/07/20 04:01:35;;;;;;;8.95;8.15;;;;;;;26.48;56.35;96282.88;5047613;28;20249;-84
2022/07/20 04:04:02;;;;;;;9.90;7.93;;;;;;;26.55;56.64;96272.88;5082136;28;20279;-84
2022/07/20 04:06:29;;;;;;;9.32;8.25;;;;;;;26.49;57.80;96276.19;5048669;28;20207;-84
2022/07/20 04:08:57;;;;;;;9.05;8.25;;;;;;;26.45;56.84;96292.66;5046927;28;20218;-84
2022/07/20 04:11:25;;;;;;;12.07;8.25;;;;;;;26.47;57.32;96297.84;5042849;28;20213;-83
2022/07/20 04:13:53;;;;;;;8.95;8.15;;;;;;;26.55;57.23;96299.75;5036698;28;20455;-84
2022/07/20 04:16:20;;;;;;;8.95;8.05;;;;;;;26.58;57.05;96294.38;5046119;28;20202;-84
2022/07/20 04:18:48;;;;;;;9.52;8.45;;;;;;;26.64;56.40;96303.31;5045021;28;20213;-84
2022/07/20 04:21:15;;;;;;;9.30;8.48;;;;;;;26.73;57.10;96310.41;5047601;28;20266;-84
2022/07/20 04:23:43;;;;;;;10.60;8.32;;;;;;;26.78;56.69;96303.06;5040119;28;20206;-84
2022/07/20 04:26:10;;;;;;;10.43;8.05;;;;;;;26.79;55.94;96294.44;5033447;28;20216;-84
2022/07/20 04:28:38;;;;;;;8.52;7.68;;;;;;;26.90;56.66;96301.19;5046811;28;20238;-83
2022/07/20 04:31:05;;;;;;;9.05;8.25;;;;;;;26.93;55.84;96305.28;5046448;28;20200;-83
2022/07/20 04:33:32;;;;;;;8.57;7.78;;;;;;;27.04;55.29;96301.78;5034089;28;20316;-83
2022/07/20 04:36:00;;;;;;;9.75;8.02;;;;;;;27.06;55.33;96301.44;5073246;28;20205;-84
2022/07/20 04:38:27;;;;;;;10.95;8.40;;;;;;;27.10;54.20;96308.75;5042494;28;20202;-84
2022/07/20 04:40:54;;;;;;;11.50;8.68;;;;;;;27.10;53.80;96311.53;5043840;28;20214;-84
2022/07/20 04:43:21;;;;;;;10.77;8.70;;;;;;;27.15;54.75;96313.28;5045330;28;20233;-84
2022/07/20 04:45:49;;;;;;;9.05;8.25;;;;;;;27.14;55.62;96311.66;5080300;28;20246;-84
2022/07/20 04:48:16;;;;;;;18.50;9.68;;;;;;;26.93;58.61;96316.38;5042353;28;20320;-83
2022/07/20 04:50:43;;;;;;;11.48;9.10;;;;;;;26.57;60.34;96322.41;5073312;28;20256;-83
2022/07/20 04:53:10;;;;;;;11.48;8.45;;;;;;;26.42;60.97;96322.97;5043368;28;20240;-84
2022/07/20 04:55:37;;;;;;;11.82;9.18;;;;;;;26.35;61.71;96318.78;5044456;28;20244;-84
2022/07/20 04:58:04;;;;;;;11.65;9.30;;;;;;;26.26;61.70;96320.75;5076942;28;20202;-84
2022/07/20 05:00:31;;;;;;;11.20;10.00;;;;;;;26.20;62.50;96326.78;5045591;28;20206;-83
2022/07/20 05:03:00;;;;;;;15.18;9.30;;;;;;;26.16;63.04;96326.63;5041763;28;20207;-84
2022/07/20 05:05:27;;;;;;;19.10;10.40;;;;;;;26.20;62.93;96344.16;5034431;28;20221;-84
2022/07/20 05:07:54;;;;;;;11.07;8.73;;;;;;;26.12;63.52;96331.16;5046929;28;20210;-83
2022/07/20 05:10:21;;;;;;;12.00;9.45;;;;;;;26.05;64.15;96338.34;5045749;28;20218;-84
2022/07/20 05:12:48;;;;;;;13.48;9.23;;;;;;;26.03;64.65;96344.22;5077257;28;20200;-84
2022/07/20 05:15:15;;;;;;;11.93;9.50;;;;;;;26.04;65.06;96345.84;5030470;28;20215;-84
2022/07/20 05:17:42;;;;;;;14.20;9.90;;;;;;;26.00;65.32;96355.97;5038204;28;20220;-83
2022/07/20 05:20:12;;;;;;;14.88;9.20;;;;;;;25.98;65.38;96361.00;5045420;28;20224;-83
2022/07/20 05:22:39;;;;;;;13.40;9.40;;;;;;;25.93;65.75;96366.72;5045755;28;20202;-83
2022/07/20 05:25:07;;;;;;;10.23;9.15;;;;;;;25.83;65.92;96362.34;5064411;28;20214;-84
2022/07/20 05:27:34;;;;;;;13.93;9.38;;;;;;;25.88;65.89;96364.09;5042213;28;20252;-84
2022/07/20 05:30:01;;;;;;;14.35;9.00;;;;;;;25.96;66.04;96361.31;5072669;28;20240;-84
2022/07/20 05:32:28;;;;;;;11.13;9.25;;;;;;;26.00;67.15;96372.56;5045192;28;20228;-84
2022/07/20 05:34:56;;;;;;;13.98;9.15;;;;;;;26.06;67.47;96371.25;5046591;28;20210;-84
2022/07/20 05:37:24;;;;;;;11.50;9.00;;;;;;;26.17;66.69;96363.41;5045778;28;20237;-83
2022/07/20 05:39:51;;;;;;;13.30;9.02;;;;;;;26.22;66.38;96357.69;5049036;28;20198;-84
2022/07/20 05:42:18;;;;;;;11.98;9.77;;;;;;;26.28;66.81;96365.53;5045076;28;20260;-83
2022/07/20 05:44:45;;;;;;;13.88;9.18;;;;;;;26.27;68.11;96372.22;5039223;28;20301;-83
2022/07/20 05:47:12;;;;;;;10.77;9.32;;;;;;;26.23;70.13;96365.66;5069087;28;20213;-83
2022/07/20 05:49:40;;;;;;;9.82;8.52;;;;;;;26.29;69.80;96375.44;5041282;28;20238;-83
2022/07/20 05:52:07;;;;;;;12.43;9.40;;;;;;;26.30;70.36;96377.06;5041761;28;20216;-83
2022/07/20 05:54:35;;;;;;;13.40;9.40;;;;;;;26.44;70.22;96367.75;5076989;28;20206;-83
2022/07/20 05:57:02;;;;;;;10.98;8.90;;;;;;;26.52;69.25;96383.53;5040453;28;20231;-83
2022/07/20 05:59:30;;;;;;;10.52;9.43;;;;;;;26.59;68.77;96383.81;5072086;28;20293;-81
2022/07/20 06:01:57;;;;;;;11.98;9.18;;;;;;;26.54;70.58;96370.94;5035118;28;20208;-81
2022/07/20 06:04:24;;;;;;;12.00;9.35;;;;;;;26.60;71.32;96379.91;5046167;28;20190;-81
2022/07/20 06:06:51;;;;;;;13.48;9.02;;;;;;;26.64;70.20;96384.44;5037211;28;20205;-81
2022/07/20 06:09:18;;;;;;;11.07;8.95;;;;;;;26.67;69.65;96375.47;5047334;28;20285;-81
2022/07/20 06:11:46;;;;;;;14.13;9.27;;;;;;;26.71;69.18;96376.41;5049395;28;20288;-81
2022/07/20 06:14:13;;;;;;;9.82;8.80;;;;;;;26.70;71.79;96374.81;5040357;28;20306;-81
2022/07/20 06:16:40;;;;;;;11.93;8.90;;;;;;;26.66;71.71;96373.03;5045984;28;20231;-81
2022/07/20 06:19:08;;;;;;;12.07;8.55;;;;;;;26.62;70.00;96378.44;5045130;28;20200;-81
2022/07/20 06:21:35;;;;;;;13.40;9.00;;;;;;;26.61;71.02;96368.50;5040637;28;20465;-81
2022/07/20 06:24:02;;;;;;;15.13;9.07;;;;;;;26.67;70.38;96374.66;5034325;28;20254;-81
2022/07/20 06:26:29;;;;;;;10.48;9.38;;;;;;;26.71;70.22;96375.63;5038733;28;20210;-81
2022/07/20 06:28:57;;;;;;;12.63;9.20;;;;;;;26.63;70.48;96368.97;5044837;28;20234;-81
2022/07/20 06:31:24;;;;;;;11.77;9.18;;;;;;;26.67;70.79;96375.47;5031172;28;20218;-83
2022/07/20 06:33:51;;;;;;;10.40;9.30;;;;;;;26.58;70.85;96374.69;5047715;28;20230;-83
2022/07/20 06:36:19;;;;;;;13.27;9.98;;;;;;;26.65;71.32;96371.41;5045329;28;20213;-83
2022/07/20 06:38:46;;;;;;;11.40;9.15;;;;;;;26.69;71.84;96378.72;5048376;28;20206;-84
2022/07/20 06:41:13;;;;;;;17.70;9.95;;;;;;;26.52;72.09;96367.72;5048837;28;20210;-83
2022/07/20 06:43:40;;;;;;;10.63;9.40;;;;;;;26.52;72.66;96375.22;5073509;28;20225;-83
2022/07/20 06:46:09;;;;;;;11.13;9.20;;;;;;;26.64;72.74;96375.31;5045399;28;20296;-84
2022/07/20 06:48:37;;;;;;;12.30;9.38;;;;;;;26.74;72.37;96370.22;5047305;28;20226;-83
2022/07/20 06:51:05;;;;;;;10.77;9.68;;;;;;;26.77;70.26;96379.84;5043411;28;20219;-83
2022/07/20 06:53:32;;;;;;;9.85;8.82;;;;;;;26.79;70.71;96377.53;5045873;28;20202;-84
2022/07/20 06:56:00;;;;;;;10.85;9.35;;;;;;;26.88;70.53;96378.28;5045944;28;20223;-84
2022/07/20 06:58:27;;;;;;;9.98;8.98;;;;;;;27.03;70.58;96383.31;5049402;28;20186;-84
2022/07/20 07:00:54;;;;;;;10.75;9.48;;;;;;;27.10;68.52;96380.00;5040129;28;20299;-83
2022/07/20 07:03:22;;;;;;;11.05;8.73;;;;;;;27.20;71.16;96376.03;5038888;28;20207;-83
2022/07/20 07:05:49;;;;;;;11.73;9.52;;;;;;;27.17;72.02;96382.25;5043056;28;20269;-84
2022/07/20 07:08:16;;;;;;;14.43;8.60;;;;;;;27.26;71.38;96383.81;5045579;28;20235;-84
2022/07/20 07:10:43;;;;;;;15.15;9.80;;;;;;;27.25;70.09;96379.41;5047108;28;20195;-84
2022/07/20 07:13:10;;;;;;;11.60;9.73;;;;;;;27.25;69.83;96386.91;5057127;28;20251;-84
2022/07/20 07:15:37;;;;;;;11.32;9.65;;;;;;;27.15;68.05;96390.06;5047218;28;20210;-83
2022/07/20 07:18:05;;;;;;;11.73;10.18;;;;;;;27.18;68.54;96379.13;5047643;28;20256;-83
2022/07/20 07:20:34;;;;;;;12.38;9.98;;;;;;;27.28;68.09;96384.28;5047628;28;20199;-84
2022/07/20 07:23:01;;;;;;;11.75;9.55;;;;;;;27.40;66.47;96380.75;5046586;28;20241;-84
2022/07/20 07:25:28;;;;;;;13.35;9.52;;;;;;;27.54;67.12;96375.00;5045810;28;20198;-84
2022/07/20 07:27:55;;;;;;;11.00;9.18;;;;;;;27.66;66.04;96384.19;5057489;28;20249;-84
2022/07/20 07:30:22;;;;;;;13.95;9.90;;;;;;;27.80;65.40;96383.91;5046812;28;20230;-84
2022/07/20 07:32:49;;;;;;;12.15;9.48;;;;;;;27.89;64.99;96383.84;5044020;28;20214;-84
2022/07/20 07:35:16;;;;;;;10.13;9.20;;;;;;;28.05;66.06;96390.38;5046191;28;20195;-84
2022/07/20 07:37:45;;;;;;;11.27;9.50;;;;;;;28.16;63.99;96380.47;5061151;28;20293;-83
2022/07/20 07:40:12;;;;;;;12.82;10.05;;;;;;;28.27;63.68;96401.13;5046105;28;20213;-83
2022/07/20 07:42:40;;;;;;;14.20;10.25;;;;;;;28.67;63.29;96389.41;5045061;28;20202;-84
2022/07/20 07:45:09;;;;;;;15.20;9.95;;;;;;;28.93;62.05;96392.66;5045534;28;20206;-84
2022/07/20 07:47:37;;;;;;;12.73;10.13;;;;;;;29.31;62.05;96401.47;5042091;28;20289;-83
2022/07/20 07:50:05;;;;;;;11.77;9.75;;;;;;;29.67;60.47;96388.69;5045228;28;20227;-83
2022/07/20 07:52:32;;;;;;;14.98;10.05;;;;;;;29.80;58.85;96393.03;5045995;28;20214;-84
2022/07/20 07:55:00;;;;;;;14.15;9.70;;;;;;;29.84;59.21;96405.09;5037315;28;20211;-84
2022/07/20 07:57:27;;;;;;;14.15;9.48;;;;;;;29.73;58.69;96401.19;5069581;28;20233;-84
2022/07/20 07:59:54;;;;;;;12.82;9.60;;;;;;;29.86;58.92;96396.41;5037744;28;20264;-84
2022/07/20 08:02:21;;;;;;;13.80;9.32;;;;;;;30.05;57.43;96400.16;5075948;28;20276;-83
2022/07/20 08:04:49;;;;;;;12.18;10.00;;;;;;;30.24;56.27;96401.47;5044427;28;20218;-84
2022/07/20 08:07:16;;;;;;;12.27;9.27;;;;;;;30.31;57.27;96390.53;5048314;28;20283;-84
2022/07/20 08:09:43;;;;;;;12.27;10.02;;;;;;;30.39;59.07;96389.56;5046489;28;20281;-84
2022/07/20 08:12:12;;;;;;;13.93;9.85;;;;;;;30.60;58.93;96395.72;5045542;28;20232;-83
2022/07/20 08:14:39;;;;;;;13.38;10.60;;;;;;;30.56;56.68;96397.59;5052347;28;20205;-84
2022/07/20 08:17:06;;;;;;;12.70;10.02;;;;;;;30.79;55.98;96401.38;5044329;28;20202;-83
2022/07/20 08:19:33;;;;;;;12.65;9.95;;;;;;;31.03;54.77;96400.41;5043702;28;20296;-83
2022/07/20 08:22:01;;;;;;;11.70;10.48;;;;;;;31.14;54.33;96395.09;5077310;28;20206;-84
2022/07/20 08:24:28;;;;;;;11.13;9.52;;;;;;;31.19;54.79;96392.06;5045581;28;20209;-84
2022/07/20 08:26:55;;;;;;;14.05;10.20;;;;;;;31.38;55.41;96396.88;5044318;28;20206;-84
2022/07/20 08:29:23;;;;;;;11.10;9.80;;;;;;;31.53;53.09;96387.66;5042645;28;20227;-84
2022/07/20 08:31:50;;;;;;;16.92;10.68;;;;;;;31.51;53.72;96390.81;5063135;28;20203;-83
2022/07/20 08:34:17;;;;;;;13.90;10.27;;;;;;;31.59;52.50;96391.78;5033127;28;20264;-84
2022/07/20 08:36:44;;;;;;;16.67;10.27;;;;;;;31.71;51.68;96383.31;5043739;28;20206;-84
2022/07/20 08:39:11;;;;;;;13.98;10.65;;;;;;;31.71;51.13;96386.09;5039696;28;20222;-84
2022/07/20 08:41:40;;;;;;;12.82;9.52;;;;;;;31.78;52.20;96382.66;5034803;28;20449;-84
2022/07/20 08:44:07;;;;;;;11.90;10.32;;;;;;;31.68;51.62;96384.03;5065125;28;20205;-84
2022/07/20 08:46:37;;;;;;;14.88;10.35;;;;;;;31.53;52.24;96380.09;5036595;28;20209;-84
2022/07/20 08:49:05;;;;;;;13.90;9.90;;;;;;;31.46;52.93;96387.50;5048420;28;20198;-84
2022/07/20 08:51:32;;;;;;;14.45;10.45;;;;;;;31.30;53.52;96370.00;5042830;28;20214;-85
2022/07/20 08:54:00;;;;;;;12.68;10.32;;;;;;;31.30;53.89;96381.97;5041186;28;20199;-84
2022/07/20 08:56:28;;;;;;;11.88;10.02;;;;;;;31.31;53.19;96372.41;5037166;28;20226;-84
2022/07/20 08:58:55;;;;;;;13.25;10.82;;;;;;;31.27;53.36;96368.72;5044057;28;20207;-84
2022/07/20 09:01:22;;;;;;;12.50;10.93;;;;;;;31.25;53.19;96370.25;5045523;28;20237;-85
2022/07/20 09:06:52;;;;;;;11.77;10.57;;;;;;;31.69;50.82;96365.31;5129542;27;20578;-84
2022/07/20 09:09:21;;;;;;;13.27;11.13;;;;;;;31.95;50.52;96373.84;5116026;28;20214;-84
2022/07/20 09:11:48;;;;;;;11.38;10.38;;;;;;;32.07;49.54;96365.28;5111851;28;20202;-84
2022/07/20 09:14:36;;;;;;;14.73;10.35;;;;;;;32.30;49.45;96365.38;5127855;27;20195;-84
2022/07/20 09:17:16;;;;;;;10.73;9.80;;;;;;;32.33;48.09;96363.84;5115118;27;20195;-84
2022/07/20 09:19:58;;;;;;;10.90;9.75;;;;;;;32.49;48.92;96358.94;5107953;27;20195;-84
2022/07/20 09:22:38;;;;;;;11.27;10.02;;;;;;;32.69;46.09;96360.53;5121667;27;20191;-84
2022/07/20 09:25:11;;;;;;;10.50;9.32;;;;;;;32.82;44.79;96367.56;5124212;27;20267;-84
2022/07/20 09:27:39;;;;;;;11.00;9.90;;;;;;;33.03;44.17;96353.91;5126411;27;20233;-84
2022/07/20 09:30:10;;;;;;;11.10;9.90;;;;;;;33.26;44.98;96359.47;5136753;27;20206;-84
2022/07/20 09:32:51;;;;;;;10.40;9.40;;;;;;;33.31;43.37;96364.78;5125344;27;20202;-85
2022/07/20 09:35:20;;;;;;;15.90;9.43;;;;;;;33.26;41.87;96353.09;5129026;27;20268;-84
2022/07/20 09:37:48;;;;;;;10.38;9.48;;;;;;;33.32;42.90;96357.19;5117740;27;20207;-84
2022/07/20 09:40:15;;;;;;;10.40;9.38;;;;;;;33.32;42.67;96365.59;5126117;27;20255;-84
2022/07/20 09:42:45;;;;;;;11.05;9.98;;;;;;;33.36;41.18;96355.22;5118036;27;20297;-84
2022/07/20 09:45:23;;;;;;;10.73;9.73;;;;;;;33.50;41.08;96357.44;5114915;28;20262;-84
2022/07/20 09:48:06;;;;;;;11.25;9.10;;;;;;;33.75;40.71;96365.03;5110897;28;20275;-84
2022/07/20 09:50:35;;;;;;;11.20;10.05;;;;;;;33.95;41.00;96362.06;5109647;28;20204;-84
2022/07/20 09:53:04;;;;;;;10.18;9.05;;;;;;;33.93;38.90;96358.84;5113695;27;20207;-84
2022/07/20 09:55:33;;;;;;;10.13;9.23;;;;;;;33.88;39.26;96356.38;5123958;28;20203;-84
2022/07/20 09:58:00;;;;;;;11.27;9.60;;;;;;;33.97;38.69;96354.09;5129663;27;20263;-84
2022/07/20 10:00:29;;;;;;;9.35;8.05;;;;;;;34.02;37.38;96353.75;5134092;27;20203;-84
2022/07/20 10:02:58;;;;;;;9.82;8.60;;;;;;;34.04;37.65;96354.16;5131282;27;20206;-84
2022/07/20 10:05:28;;;;;;;10.02;8.68;;;;;;;34.10;36.60;96361.06;5128533;27;20241;-84
2022/07/20 10:07:55;;;;;;;9.38;8.48;;;;;;;34.15;36.80;96367.13;5142289;27;20199;-84
2022/07/20 10:10:23;;;;;;;11.18;9.00;;;;;;;34.17;37.49;96363.94;5141063;27;20191;-85
2022/07/20 10:12:50;;;;;;;12.40;9.38;;;;;;;34.06;38.05;96363.00;5135724;27;20301;-84
2022/07/20 10:15:22;;;;;;;9.38;8.50;;;;;;;34.24;38.92;96364.03;5124829;27;20211;-84
2022/07/20 10:17:49;;;;;;;9.48;8.57;;;;;;;34.28;36.54;96358.50;5120384;27;20203;-84
2022/07/20 10:20:31;;;;;;;10.57;8.65;;;;;;;34.25;37.59;96357.25;5115202;27;20214;-85
2022/07/20 10:23:34;;;;;;;9.80;9.00;;;;;;;34.39;36.73;96359.41;5124458;27;20200;-85
2022/07/20 10:26:03;;;;;;;8.98;8.07;;;;;;;34.33;36.26;96360.94;5113197;27;20223;-84
2022/07/20 10:28:36;;;;;;;9.27;8.45;;;;;;;34.50;36.19;96363.94;5125640;27;20206;-84
2022/07/20 10:31:07;;;;;;;9.32;8.43;;;;;;;34.47;35.26;96350.66;5120725;27;20245;-84
2022/07/20 10:33:36;;;;;;;8.88;7.95;;;;;;;34.36;34.98;96360.19;5121346;27;20203;-84
2022/07/20 10:38:57;;;;;;;9.35;8.45;;;;;;;34.37;36.19;96362.56;5121884;27;20212;-84
2022/07/20 10:41:36;;;;;;;9.80;8.30;;;;;;;34.36;36.47;96361.00;5125350;27;20215;-85
2022/07/20 10:44:31;;;;;;;9.35;8.45;;;;;;;34.20;36.01;96363.16;5111873;27;20224;-85
2022/07/20 10:46:58;;;;;;;8.98;8.18;;;;;;;34.23;35.77;96356.78;5126857;27;20228;-84
2022/07/20 10:50:00;;;;;;;8.52;7.72;;;;;;;34.17;35.63;96352.72;5118824;27;20200;-85
2022/07/20 10:52:28;;;;;;;9.02;8.02;;;;;;;34.14;36.45;96350.69;5127550;27;20207;-84
2022/07/20 10:54:55;;;;;;;8.85;8.05;;;;;;;34.11;36.21;96348.66;5113737;27;20216;-85
2022/07/20 10:57:26;;;;;;;8.88;8.18;;;;;;;34.11;36.54;96343.06;5109740;27;20346;-85
2022/07/20 11:00:11;;;;;;;9.07;8.18;;;;;;;33.94;36.30;96343.66;5114386;27;20222;-85
2022/07/20 11:02:39;;;;;;;10.55;7.95;;;;;;;34.03;36.58;96341.34;5108861;27;20302;-84
2022/07/20 11:05:18;;;;;;;8.82;8.10;;;;;;;34.14;35.65;96337.47;5125079;27;20228;-85
2022/07/20 11:07:45;;;;;;;9.50;8.50;;;;;;;34.24;36.94;96341.63;5116946;27;20211;-85
2022/07/20 11:10:22;;;;;;;9.30;8.40;;;;;;;34.23;36.37;96331.56;5124209;27;20249;-84
2022/07/20 11:12:59;;;;;;;9.15;8.30;;;;;;;34.20;36.46;96331.53;5144473;27;20275;-85
2022/07/20 11:15:38;;;;;;;9.35;8.45;;;;;;;34.23;36.09;96330.75;5122326;27;20298;-85
2022/07/20 11:18:07;;;;;;;9.05;8.15;;;;;;;34.24;36.06;96312.78;5121544;27;20219;-84
2022/07/20 11:20:34;;;;;;;8.95;8.05;;;;;;;34.07;36.34;96316.97;5118434;27;20208;-84
2022/07/20 11:23:02;;;;;;;12.02;8.40;;;;;;;34.15;36.30;96313.06;5108555;27;20196;-84
2022/07/20 11:25:48;;;;;;;11.10;8.68;;;;;;;34.18;36.17;96310.31;5127897;27;20226;-84
2022/07/20 11:28:18;;;;;;;9.30;8.50;;;;;;;34.40;35.59;96304.94;5117965;27;20208;-84
2022/07/20 11:30:47;;;;;;;9.07;8.35;;;;;;;34.41;35.99;96298.16;5125258;27;20203;-84
2022/07/20 11:33:14;;;;;;;9.60;8.60;;;;;;;34.48;35.69;96292.59;5115065;27;20220;-84
2022/07/20 11:35:41;;;;;;;9.50;8.75;;;;;;;34.31;35.56;96288.44;5119511;27;20239;-85
2022/07/20 11:38:08;;;;;;;9.32;8.52;;;;;;;34.35;35.67;96286.50;5109511;27;20280;-84
2022/07/20 11:40:35;;;;;;;9.13;8.30;;;;;;;34.32;35.98;96284.44;5113807;27;20287;-84
2022/07/20 11:43:07;;;;;;;9.82;8.93;;;;;;;34.30;35.11;96272.00;5114664;27;20232;-84
2022/07/20 11:45:36;;;;;;;9.70;8.32;;;;;;;34.27;36.43;96272.78;5113653;27;20227;-84